28 de maio de 2022

Hora Código Clima Temp. Visibilidade Tecto Vento METAR/SPECI
6:55 da tarde
V
55 °F 6¼ mi+ - 310° 310° 13 kt METAR EHGG 281655Z AUTO 31013KT 270V340 9999 NSC 13/06 Q1019 NOSIG
6:25 da tarde
V
54 °F 6¼ mi+ 4.900 ft 320° 320° 15 kt METAR EHGG 281625Z AUTO 32015KT 290V350 9999 FEW039 SCT044 BKN049 12/06 Q1019 NOSIG
5:55 da tarde
V
55 °F 6¼ mi+ - 310° 310° 14 - 24 kt METAR EHGG 281555Z AUTO 31014G24KT 280V350 9999 FEW032 13/06 Q1019 NOSIG
5:25 da tarde
V
55 °F 6¼ mi+ - 310° 310° 16 kt METAR EHGG 281525Z AUTO 31016KT 9999 SCT028 SCT034 13/05 Q1019 NOSIG
4:55 da tarde
V
54 °F 6¼ mi+ 4.800 ft 300° 300° 10 kt METAR EHGG 281455Z AUTO 30010KT 250V340 9999 FEW039 SCT044 BKN048 12/08 Q1019 REDZ NOSIG
4:25 da tarde
V
57 °F 6¼ mi+ - 310° 310° 16 kt METAR EHGG 281425Z AUTO 31016KT 270V340 9999 NSC 14/06 Q1019 TEMPO 32017G28KT 7000 -SHRA FEW025TCU
3:55 da tarde
V
57 °F 6¼ mi+ - 310° 310° 14 kt METAR EHGG 281355Z AUTO 31014KT 270V360 9999 FEW038 14/04 Q1019 NOSIG
3:25 da tarde
V
57 °F 6¼ mi+ - 310° 310° 16 kt METAR EHGG 281325Z AUTO 31016KT 270V360 9999 NSC 14/06 Q1019 NOSIG
2:55 da tarde
V
55 °F 6¼ mi+ - 310° 310° 15 kt METAR EHGG 281255Z AUTO 31015KT 260V360 9999 FEW031 SCT048 13/06 Q1020 NOSIG
2:25 da tarde
M
54 °F 6¼ mi+ 2.900 ft 320° 320° 9 kt METAR EHGG 281225Z AUTO 32009KT 280V350 9999 FEW021 SCT024 BKN029 12/08 Q1020 NOSIG
1:55 da tarde
M
52 °F 6¼ mi+ 2.800 ft 310° 310° 16 kt METAR EHGG 281155Z AUTO 31016KT 270V350 9999 -RA FEW024 BKN028 OVC033 11/06 Q1020 NOSIG
1:25 da tarde
V
57 °F 6¼ mi+ - 330° 330° 13 kt METAR EHGG 281125Z AUTO 33013KT 290V010 9999 SCT036 SCT043 14/04 Q1020 NOSIG
12:55 da tarde
V
57 °F 6¼ mi+ 4.800 ft 320° 320° 15 kt METAR EHGG 281055Z AUTO 32015KT 270V360 9999 FEW035 SCT040 BKN048 14/04 Q1020 NOSIG
12:25 da tarde
V
55 °F 6¼ mi+ 3.000 ft 310° 310° 16 kt METAR EHGG 281025Z AUTO 31016KT 250V350 9999 SCT025 BKN030 OVC037 13/06 Q1020 NOSIG
11:55 da manhã
V
57 °F 6¼ mi+ - 320° 320° 15 kt METAR EHGG 280955Z AUTO 32015KT 270V010 9999 SCT028 SCT036 14/07 Q1020 NOSIG
11:25 da manhã
M
55 °F 6¼ mi+ 2.700 ft 320° 320° 15 kt METAR EHGG 280925Z AUTO 32015KT 270V010 9999 BKN027 BKN033 BKN037 13/06 Q1020 NOSIG
10:55 da manhã
V
55 °F 6¼ mi+ 4.500 ft 310° 310° 15 kt METAR EHGG 280855Z AUTO 31015KT 260V010 9999 FEW024 SCT028 BKN045 13/06 Q1020 NOSIG
10:25 da manhã
M
55 °F 6¼ mi+ 2.400 ft 310° 310° 14 kt METAR EHGG 280825Z AUTO 31014KT 260V340 9999 BKN024 13/07 Q1019 NOSIG
9:55 da manhã
V
55 °F 6¼ mi+ 3.000 ft 310° 310° 11 kt METAR EHGG 280755Z AUTO 31011KT 250V350 9999 FEW018 SCT023 BKN030 13/08 Q1019 NOSIG
9:25 da manhã
V
54 °F 6¼ mi+ 4.300 ft 310° 310° 13 kt METAR EHGG 280725Z AUTO 31013KT 280V340 9999 BKN043 OVC047 12/07 Q1019 NOSIG
8:55 da manhã
V
54 °F 6¼ mi+ 4.300 ft 310° 310° 12 kt METAR EHGG 280655Z AUTO 31012KT 270V360 9999 BKN043 OVC047 12/07 Q1019 NOSIG
8:25 da manhã
V
54 °F 6¼ mi+ 4.900 ft 310° 310° 12 kt METAR EHGG 280625Z AUTO 31012KT 260V350 9999 FEW020 SCT026 BKN049 12/07 Q1019 NOSIG
7:55 da manhã
M
52 °F 6¼ mi+ 2.200 ft 310° 310° 12 kt METAR EHGG 280555Z AUTO 31012KT 270V340 9999 BKN022 BKN026 BKN031 11/07 Q1019 NOSIG
7:25 da manhã
V
52 °F 6¼ mi+ - 300° 300° 9 kt METAR EHGG 280525Z AUTO 30009KT 260V340 9999 FEW023 11/07 Q1019 NOSIG
6:55 da manhã
V
50 °F 6¼ mi+ 3.800 ft 300° 300° 9 kt METAR EHGG 280455Z AUTO 30009KT 250V330 9999 FEW027 BKN038 BKN043 10/07 Q1018 TEMPO -SHRA FEW030TCU
6:25 da manhã
V
48 °F 6¼ mi+ - 300° 300° 8 kt METAR EHGG 280425Z AUTO 30008KT 250V330 9999 NCD 09/06 Q1018 TEMPO -RA -SHRA BKN020 FEW030TCU
5:55 da manhã
M
50 °F 6¼ mi+ 2.900 ft 300° 300° 7 kt METAR EHGG 280355Z AUTO 30007KT 260V320 9999 SCT025 BKN029 BKN035 10/07 Q1018 REDZ
5:25 da manhã
M
48 °F 5⅝ mi 2.500 ft 310° 310° 9 kt METAR EHGG 280325Z AUTO 31009KT 260V340 9000 -SHRA FEW020 BKN025 BKN030 09/07 Q1018 RERA
4:55 da manhã
M
50 °F 6¼ mi+ 2.100 ft 290° 290° 9 kt METAR EHGG 280255Z AUTO 29009KT 240V320 9999 -RA BKN021 BKN026 OVC030 10/06 Q1018
4:25 da manhã
V
48 °F 6¼ mi+ - 280° 280° 9 kt METAR EHGG 280225Z AUTO 28009KT 230V320 9999 FEW045 09/06 Q1018
3:55 da manhã
V
50 °F 6¼ mi+ - 280° 280° 9 kt METAR EHGG 280155Z AUTO 28009KT 250V320 9999 FEW031 10/05 Q1018
3:25 da manhã
V
50 °F 6¼ mi+ - 290° 290° 9 kt METAR EHGG 280125Z AUTO 29009KT 260V330 9999 NCD 10/05 Q1018
2:55 da manhã
V
50 °F 6¼ mi+ - 300° 300° 9 kt METAR EHGG 280055Z AUTO 30009KT 250V340 9999 FEW028 10/07 Q1018
2:25 da manhã
M
52 °F 6¼ mi+ 2.700 ft 300° 300° 12 kt METAR EHGG 280025Z AUTO 30012KT 260V350 9999 SCT023/// BKN027/// BKN031/// 11/07 Q1018
1:55 da manhã
V
52 °F 6¼ mi+ - 290° 290° 10 kt METAR EHGG 272355Z AUTO 29010KT 250V330 9999 FEW015CB SCT040 11/07 Q1018
1:25 da manhã
V
52 °F 6¼ mi+ - 280° 280° 10 kt METAR EHGG 272325Z AUTO 28010KT 240V320 9999 FEW015CB 11/08 Q1018
12:55 da manhã
V
52 °F 6¼ mi+ 4.600 ft 260° 260° 9 kt METAR EHGG 272255Z AUTO 26009KT 230V300 9999 FEW015CB SCT027 BKN046 11/08 Q1018
12:25 da manhã
V
50 °F 6¼ mi+ 4.200 ft 260° 260° 8 kt METAR EHGG 272225Z AUTO 26008KT 230V310 9999 SCT026/// SCT031/// BKN042/// 10/08 Q1019 RERA

27 de maio de 2022

Hora Código Clima Temp. Visibilidade Tecto Vento METAR/SPECI
11:55 da tarde
V
52 °F 6¼ mi+ 3.600 ft 260° 260° 8 kt METAR EHGG 272155Z AUTO 26008KT 230V290 9999 FEW027 SCT031 BKN036 11/07 Q1019
11:25 da tarde
V
52 °F 6¼ mi+ - 260° 260° 8 kt METAR EHGG 272125Z AUTO 26008KT 230V290 9999 FEW044 11/07 Q1019
10:55 da tarde
V
52 °F 6¼ mi+ - 270° 270° 10 kt METAR EHGG 272055Z AUTO 27010KT 230V310 9999 FEW033 11/07 Q1019 NOSIG
10:25 da tarde
V
52 °F 6¼ mi+ 3.700 ft 270° 270° 9 kt METAR EHGG 272025Z AUTO 27009KT 230V300 9999 SCT029 BKN037 11/07 Q1019 NOSIG
9:55 da tarde
V
52 °F 6¼ mi+ - 270° 270° 9 kt METAR EHGG 271955Z AUTO 27009KT 240V310 9999 NCD 11/07 Q1019 NOSIG
9:25 da tarde
V
54 °F 6¼ mi+ - 280° 280° 9 kt METAR EHGG 271925Z AUTO 28009KT 240V310 9999 FEW028 12/07 Q1019 NOSIG
8:55 da tarde
V
55 °F 6¼ mi+ - 280° 280° 13 kt METAR EHGG 271855Z AUTO 28013KT 240V320 9999 FEW028 13/07 Q1019 NOSIG
8:25 da tarde
V
55 °F 6¼ mi+ - 290° 290° 14 kt METAR EHGG 271825Z AUTO 29014KT 250V330 9999 FEW031 13/07 Q1019 NOSIG
7:55 da tarde
V
55 °F 6¼ mi+ - 280° 280° 13 kt METAR EHGG 271755Z AUTO 28013KT 250V320 9999 NCD 13/07 Q1019 NOSIG
7:25 da tarde
V
55 °F 6¼ mi+ 3.200 ft 290° 290° 12 kt METAR EHGG 271725Z AUTO 29012KT 240V340 9999 SCT029 BKN032 BKN037 13/07 Q1019 NOSIG
6:55 da tarde
V
55 °F 6¼ mi+ 4.300 ft 290° 290° 15 kt METAR EHGG 271655Z AUTO 29015KT 250V330 9999 SCT030 SCT036 BKN043 13/06 Q1019 NOSIG
6:25 da tarde
V
55 °F 6¼ mi+ - 280° 280° 17 - 27 kt METAR EHGG 271625Z AUTO 28017G27KT 230V330 9999 FEW030 SCT049 13/06 Q1019 NOSIG
5:55 da tarde
V
55 °F 6¼ mi+ 4.200 ft 290° 290° 12 kt METAR EHGG 271555Z AUTO 29012KT 240V330 9999 FEW031 SCT036 BKN042 13/06 Q1019 NOSIG
5:25 da tarde
V
55 °F 6¼ mi+ 4.300 ft 280° 280° 15 kt METAR EHGG 271525Z AUTO 28015KT 240V320 9999 SCT030 SCT035 BKN043 13/06 Q1019 NOSIG
4:55 da tarde
V
55 °F 6¼ mi+ 3.000 ft 290° 290° 16 kt METAR EHGG 271455Z AUTO 29016KT 250V340 9999 BKN030 BKN037 BKN041 13/06 Q1019 NOSIG
4:25 da tarde
V
57 °F 6¼ mi+ 3.400 ft 280° 280° 13 kt METAR EHGG 271425Z AUTO 28013KT 250V330 9999 SCT030 BKN034 BKN042 14/07 Q1019 NOSIG
3:55 da tarde
V
57 °F 6¼ mi+ 3.600 ft 280° 280° 15 kt METAR EHGG 271355Z AUTO 28015KT 240V330 9999 SCT030 BKN036 BKN047 14/06 Q1019 NOSIG
3:25 da tarde
V
57 °F 6¼ mi+ 4.700 ft 280° 280° 14 kt METAR EHGG 271325Z AUTO 28014KT 230V320 9999 FEW032 BKN047 14/07 Q1019 NOSIG
2:55 da tarde
V
57 °F 6¼ mi+ - 270° 270° 17 kt METAR EHGG 271255Z AUTO 27017KT 230V310 9999 SCT031 SCT039 14/06 Q1019 NOSIG
2:25 da tarde
V
57 °F 6¼ mi+ 3.700 ft 280° 280° 15 - 28 kt METAR EHGG 271225Z AUTO 28015G28KT 240V320 9999 SCT031 BKN037 BKN041 14/06 Q1019 NOSIG
1:55 da tarde
V
57 °F 6¼ mi+ 3.300 ft 280° 280° 14 kt METAR EHGG 271155Z AUTO 28014KT 230V320 9999 BKN033 BKN039 OVC045 14/06 Q1019 NOSIG
1:25 da tarde
V
57 °F 6¼ mi+ - 270° 270° 16 kt METAR EHGG 271125Z AUTO 27016KT 240V330 9999 SCT032 SCT043 14/06 Q1019 NOSIG
12:55 da tarde
V
57 °F 6¼ mi+ 3.400 ft 300° 300° 14 kt METAR EHGG 271055Z AUTO 30014KT 250V330 9999 BKN034 BKN040 OVC044 14/06 Q1018 NOSIG
12:25 da tarde
V
57 °F 6¼ mi+ 3.600 ft 280° 280° 14 - 24 kt METAR EHGG 271025Z AUTO 28014G24KT 240V340 9999 BKN036 BKN044 14/06 Q1018 NOSIG
11:55 da manhã
V
59 °F 6¼ mi+ 4.800 ft 270° 270° 14 kt METAR EHGG 270955Z AUTO 27014KT 230V320 9999 SCT035 SCT043 BKN048 15/06 Q1018 NOSIG
11:25 da manhã
V
57 °F 6¼ mi+ 3.400 ft 270° 270° 14 kt METAR EHGG 270925Z AUTO 27014KT 240V310 9999 BKN034 BKN044 14/05 Q1018 NOSIG
10:55 da manhã
V
57 °F 6¼ mi+ 3.900 ft 270° 270° 15 kt METAR EHGG 270855Z AUTO 27015KT 240V310 9999 SCT034 BKN039 BKN044 14/05 Q1018 NOSIG
10:25 da manhã
V
57 °F 6¼ mi+ 4.600 ft 260° 260° 14 kt METAR EHGG 270825Z AUTO 26014KT 230V300 9999 FEW034 BKN046 14/06 Q1017 NOSIG
9:55 da manhã
V
57 °F 6¼ mi+ - 270° 270° 13 kt METAR EHGG 270755Z AUTO 27013KT 230V320 9999 SCT037 SCT045 14/06 Q1018 NOSIG
9:25 da manhã
V
55 °F 6¼ mi+ 4.100 ft 290° 290° 15 - 26 kt METAR EHGG 270725Z AUTO 29015G26KT 250V320 9999 SCT036 BKN041 BKN046 13/05 Q1018 NOSIG
8:55 da manhã
V
55 °F 6¼ mi+ - 280° 280° 14 kt METAR EHGG 270655Z AUTO 28014KT 240V330 9999 FEW035 13/05 Q1017 NOSIG
8:25 da manhã
V
55 °F 6¼ mi+ - 280° 280° 11 kt METAR EHGG 270625Z AUTO 28011KT 240V320 9999 NSC 13/08 Q1017 NOSIG
7:55 da manhã
V
54 °F 6¼ mi+ - 260° 260° 8 kt METAR EHGG 270555Z AUTO 26008KT 230V300 9999 NSC 12/08 Q1017 NOSIG
7:25 da manhã
V
54 °F 6¼ mi+ - 270° 270° 6 kt METAR EHGG 270525Z AUTO 27006KT 240V300 9999 FEW038 12/09 Q1017 NOSIG
6:55 da manhã
V
54 °F 6¼ mi+ - 250° 250° 8 kt METAR EHGG 270455Z AUTO 25008KT 220V300 9999 NSC 12/10 Q1017 NOSIG
6:25 da manhã
V
52 °F 6¼ mi+ - 250° 250° 5 kt METAR EHGG 270425Z AUTO 25005KT 230V290 9999 FEW028 SCT043 11/09 Q1017 NOSIG
5:55 da manhã
V
50 °F 6¼ mi+ - 250° 250° 6 kt METAR EHGG 270355Z AUTO 25006KT 9999 NSC 10/09 Q1017 NOSIG
5:25 da manhã
V
48 °F 6¼ mi+ - 250° 250° 4 kt METAR EHGG 270325Z AUTO 25004KT 9999 NSC 09/08 Q1016
4:55 da manhã
V
52 °F 6¼ mi+ - 250° 250° 5 kt METAR EHGG 270255Z AUTO 25005KT 9999 NSC 11/09 Q1017
4:25 da manhã
V
52 °F 6¼ mi+ - 270° 270° 5 kt METAR EHGG 270225Z AUTO 27005KT 240V300 9999 FEW047 11/10 Q1017
3:55 da manhã
V
54 °F 6¼ mi+ - 280° 280° 6 kt METAR EHGG 270155Z AUTO 28006KT 250V330 9999 FEW047 12/11 Q1016
3:25 da manhã
V
55 °F 6¼ mi+ - 280° 280° 6 kt METAR EHGG 270125Z AUTO 28006KT 250V320 9999 NSC 13/11 Q1016
2:55 da manhã
V
55 °F 6¼ mi+ - 290° 290° 8 kt METAR EHGG 270055Z AUTO 29008KT 250V320 9999 SCT045 13/12 Q1016
2:25 da manhã
M
57 °F 6¼ mi+ 1.400 ft 270° 270° 8 kt METAR EHGG 270025Z AUTO 27008KT 230V300 9999 FEW010/// SCT012/// BKN014/// 14/13 Q1016
1:55 da manhã
M
57 °F 6¼ mi+ 1.000 ft 270° 270° 8 kt METAR EHGG 262355Z AUTO 27008KT 240V310 9999 -RA FEW007 SCT008 BKN010 14/13 Q1016
1:25 da manhã
M
57 °F 3⅛ mi 1.000 ft 270° 270° 12 kt METAR EHGG 262325Z AUTO 27012KT 230V310 5000 SHRA FEW001 SCT008 BKN010 FEW015CB 14/13 Q1016
12:55 da manhã
M
57 °F 5⅝ mi 1.500 ft 250° 250° 10 kt METAR EHGG 262255Z AUTO 25010KT 210V290 9000 -SHRA FEW011 BKN015CB BKN018 14/13 Q1016 REDZ
12:25 da manhã
M
57 °F 6¼ mi+ 1.500 ft 250° 250° 11 kt METAR EHGG 262225Z AUTO 25011KT 200V270 9999 SCT012/// BKN015/// OVC022/// 14/13 Q1016

26 de maio de 2022

Hora Código Clima Temp. Visibilidade Tecto Vento METAR/SPECI
11:55 da tarde
M
57 °F 6¼ mi+ 1.400 ft 240° 240° 10 kt METAR EHGG 262155Z AUTO 24010KT 210V290 9999 FEW012 BKN014 BKN025 14/13 Q1016
11:25 da tarde
M
57 °F 6¼ mi+ 1.600 ft 240° 240° 11 kt METAR EHGG 262125Z AUTO 24011KT 210V270 9999 SCT013 BKN016 BKN027 14/13 Q1016
10:55 da tarde
M
59 °F 6¼ mi+ 1.500 ft 250° 250° 11 kt METAR EHGG 262055Z AUTO 25011KT 220V280 9999 FEW012 BKN015 BKN028 15/13 Q1016 TEMPO 7000 -RADZ BKN016
10:25 da tarde
M
57 °F 6¼ mi+ 1.600 ft 250° 250° 11 kt METAR EHGG 262025Z AUTO 25011KT 210V270 9999 -RA SCT014 FEW015CB OVC016 14/13 Q1016 TEMPO 7000 -RADZ BKN014
9:55 da tarde
M
57 °F 6¼ mi+ 1.500 ft 240° 240° 14 kt METAR EHGG 261955Z AUTO 24014KT 210V270 9999 FEW012 BKN015 BKN019 14/13 Q1016 TEMPO 7000 -RADZ BKN014
9:25 da tarde
M
57 °F 6¼ mi+ 1.600 ft 240° 240° 13 kt METAR EHGG 261925Z AUTO 24013KT 200V270 9999 -RA FEW011 SCT014 OVC016 14/13 Q1016 NOSIG
8:55 da tarde
M
57 °F 5 mi 1.700 ft 240° 240° 10 kt METAR EHGG 261855Z AUTO 24010KT 210V270 8000 FEW006/// SCT011/// OVC017/// 14/13 Q1016 REDZ NOSIG
8:25 da tarde
I
57 °F 2⅝ mi 1.400 ft 250° 250° 12 kt METAR EHGG 261825Z AUTO 25012KT 210V270 4200 +DZ FEW007 SCT012 BKN014 14/13 Q1016 NOSIG
7:55 da tarde
M
57 °F 6¼ mi+ 2.000 ft 230° 230° 10 kt METAR EHGG 261755Z AUTO 23010KT 210V270 9999 DZ FEW017 OVC020 14/12 Q1017 NOSIG
7:25 da tarde
M
59 °F 6¼ mi+ 2.100 ft 250° 250° 12 kt METAR EHGG 261725Z AUTO 25012KT 210V290 9999 BKN021 OVC025 15/11 Q1017 NOSIG
6:55 da tarde
M
59 °F 6¼ mi+ 2.300 ft 250° 250° 9 kt METAR EHGG 261655Z AUTO 25009KT 200V280 9999 BKN023 OVC027 15/10 Q1017 NOSIG
6:25 da tarde
M
61 °F 6¼ mi+ 2.900 ft 250° 250° 11 - 21 kt METAR EHGG 261625Z AUTO 25011G21KT 210V290 9999 FEW026 BKN029 BKN037 16/10 Q1017 NOSIG
5:55 da tarde
V
61 °F 6¼ mi+ 3.000 ft 250° 250° 13 kt METAR EHGG 261555Z AUTO 25013KT 210V280 9999 SCT027 BKN030 OVC036 16/10 Q1018 NOSIG
5:25 da tarde
V
61 °F 6¼ mi+ 3.400 ft 250° 250° 15 kt METAR EHGG 261525Z AUTO 25015KT 220V290 9999 SCT029 OVC034 16/10 Q1018 NOSIG
4:55 da tarde
V
63 °F 6¼ mi+ - 240° 240° 16 kt METAR EHGG 261455Z AUTO 24016KT 200V290 9999 FEW031 SCT036 17/10 Q1018 TEMPO 25015G25KT
Dados mais antigos

Baixe nosso aplicativo

Fácil acesso a todas as condições meteorológicas da aviação no seu celular e no seu tablet.
Com muitas características não disponíveis no site, como suporte offline e uma lista pessoal de aeroportos.

Nós e terceiros acompanhamos seu comportamento na internet em nosso site com cookies. Se você continuar, nós assumimos que você concorda com nossa política de cookies. Saiba mais